| State | Nebraska | Latest | Low (1520 cfs) | |
| River | Niobrara River | Rating | Observed | Estimated |
| Updated | 2026-05-05 10:15 (1 hour ago) | Flood - The river is flooding. Obstacles can be treacherous or deadly. The river should be avoided at this stage for casual trips and definitely for the inexperienced. Trips should be attempted only with protective gear and equipment.Flood | (none) | 3836 |
| Discharge | 1520 cfs (median: 2120 cfs) | High - The river is high and potentially dangerous, especially for the young and / or inexperienced. Normal stream obstacles are sometimes difficult to navigate. Extended distances can be attempted, but canoe travel may not be advisable.High | (none) | 2103 |
| Height | 3.6 feet | Good - Conditions are ideal for a canoe or kayak. Boats typically will drag on fewer than one-quarter of riffles, if at all, and portages are unnecessary or rare. Normal float lengths can be attempted without a problem.Good | (none) | 1825 |
| Trend | Rising (rising over 24 hours) | Low - River is low but can still be floated. Some riffles are okay but most come with significant dragging and might need a portage. Float lengths should be reduced to accommodate low flow, dragging, and portages.Low | (none) | 1325 |
| USGS | USGS Site ( Duck Duck Go Maps) | Poor - River is too low to float comfortably. Most or all riffles will drag or must be portaged and some obstacles (such as slick shelf rock) cause undue problems. Avoid the river at this stage for casual paddling trips.Poor | (none) | 741 |
| Date | Start | End | Distance | Condition | Discharge | Height | Fishing | Details |
|---|
A total of 0 rows are displayed.
BLG - Bluegill
CCF - Channel Catfish
CP - Chain Pickerel
FWD - Freshwater Drum
GSF - Green Sunfish
KSB - Kentucky Spotted Bass
LMB - Largemouth Bass
LSF - Longear Sunfish
RB - Rock Bass / Goggle Eye
RSF - Redear Sunfish
RT - Rainbow Trout
SMB - Smallmouth Bass
WB - White Bass
WF - Whitefish
WL - WalleyeThe classic River Trips application is still available for use. It is updated with the new system using a data retrofit. It is no longer maintained. The original River Trips application is no longer updated (as of 1 Dec 2016) but can be checked for errors or for the condition of the data before it was converted to the new system.
| Observation | Height | Discharge | Maximum Discharge | Minimum Discharge | Mean Discharge | P05 | P10 | P20 | P25 | P50 (Median) | P75 | P80 | P90 | P95 |
|---|---|---|---|---|---|---|---|---|---|---|---|---|---|---|
| 2026-05-05 10:15 | 3.60 | 1520 | 7220 (2020) | 1050 (2005) | 2430 | 1220 | 1340 | 1510 | 1590 | 2120 | 2870 | 3010 | 3960 | 5250 |
| 2026-05-05 09:15 | 3.58 | 1460 | 7220 (2020) | 1050 (2005) | 2430 | 1220 | 1340 | 1510 | 1590 | 2120 | 2870 | 3010 | 3960 | 5250 |
| 2026-05-05 08:15 | 3.58 | 1460 | 7220 (2020) | 1050 (2005) | 2430 | 1220 | 1340 | 1510 | 1590 | 2120 | 2870 | 3010 | 3960 | 5250 |
| 2026-05-05 07:15 | 3.56 | 1400 | 7220 (2020) | 1050 (2005) | 2430 | 1220 | 1340 | 1510 | 1590 | 2120 | 2870 | 3010 | 3960 | 5250 |
| 2026-05-05 06:15 | 3.55 | 1370 | 7220 (2020) | 1050 (2005) | 2430 | 1220 | 1340 | 1510 | 1590 | 2120 | 2870 | 3010 | 3960 | 5250 |
| 2026-05-05 05:15 | 3.56 | 1400 | 7220 (2020) | 1050 (2005) | 2430 | 1220 | 1340 | 1510 | 1590 | 2120 | 2870 | 3010 | 3960 | 5250 |
| 2026-05-05 04:15 | 3.56 | 1400 | 7220 (2020) | 1050 (2005) | 2430 | 1220 | 1340 | 1510 | 1590 | 2120 | 2870 | 3010 | 3960 | 5250 |
| 2026-05-05 03:15 | 3.54 | 1340 | 7220 (2020) | 1050 (2005) | 2430 | 1220 | 1340 | 1510 | 1590 | 2120 | 2870 | 3010 | 3960 | 5250 |
| 2026-05-05 02:15 | 3.53 | 1320 | 7220 (2020) | 1050 (2005) | 2430 | 1220 | 1340 | 1510 | 1590 | 2120 | 2870 | 3010 | 3960 | 5250 |
| 2026-05-05 01:15 | 3.52 | 1290 | 7220 (2020) | 1050 (2005) | 2430 | 1220 | 1340 | 1510 | 1590 | 2120 | 2870 | 3010 | 3960 | 5250 |
| 2026-05-05 00:15 | 3.51 | 1260 | 7220 (2020) | 1050 (2005) | 2430 | 1220 | 1340 | 1510 | 1590 | 2120 | 2870 | 3010 | 3960 | 5250 |
| 2026-05-04 23:15 | 3.50 | 1230 | 7220 (2020) | 1050 (2005) | 2430 | 1220 | 1340 | 1510 | 1590 | 2120 | 2870 | 3010 | 3960 | 5250 |
| 2026-05-04 22:15 | 3.49 | 1210 | 6200 (1988) | 829 (2005) | 2430 | 1200 | 1320 | 1570 | 1640 | 2120 | 3060 | 3120 | 4230 | 5060 |
| 2026-05-04 21:15 | 3.50 | 1230 | 6200 (1988) | 829 (2005) | 2430 | 1200 | 1320 | 1570 | 1640 | 2120 | 3060 | 3120 | 4230 | 5060 |
| 2026-05-04 20:15 | 3.52 | 1290 | 6200 (1988) | 829 (2005) | 2430 | 1200 | 1320 | 1570 | 1640 | 2120 | 3060 | 3120 | 4230 | 5060 |
| 2026-05-04 19:15 | 3.54 | 1340 | 6200 (1988) | 829 (2005) | 2430 | 1200 | 1320 | 1570 | 1640 | 2120 | 3060 | 3120 | 4230 | 5060 |
| 2026-05-04 18:15 | 3.54 | 1340 | 6200 (1988) | 829 (2005) | 2430 | 1200 | 1320 | 1570 | 1640 | 2120 | 3060 | 3120 | 4230 | 5060 |
| 2026-05-04 17:15 | 3.56 | 1400 | 6200 (1988) | 829 (2005) | 2430 | 1200 | 1320 | 1570 | 1640 | 2120 | 3060 | 3120 | 4230 | 5060 |
| 2026-05-04 16:15 | 3.58 | 1460 | 6200 (1988) | 829 (2005) | 2430 | 1200 | 1320 | 1570 | 1640 | 2120 | 3060 | 3120 | 4230 | 5060 |
| 2026-05-04 15:15 | 3.60 | 1520 | 6200 (1988) | 829 (2005) | 2430 | 1200 | 1320 | 1570 | 1640 | 2120 | 3060 | 3120 | 4230 | 5060 |
| 2026-05-04 14:15 | 3.59 | 1490 | 6200 (1988) | 829 (2005) | 2430 | 1200 | 1320 | 1570 | 1640 | 2120 | 3060 | 3120 | 4230 | 5060 |
| 2026-05-04 13:15 | 3.57 | 1430 | 6200 (1988) | 829 (2005) | 2430 | 1200 | 1320 | 1570 | 1640 | 2120 | 3060 | 3120 | 4230 | 5060 |
| 2026-05-04 12:15 | 3.56 | 1400 | 6200 (1988) | 829 (2005) | 2430 | 1200 | 1320 | 1570 | 1640 | 2120 | 3060 | 3120 | 4230 | 5060 |
| 2026-05-04 11:15 | 3.55 | 1370 | 6200 (1988) | 829 (2005) | 2430 | 1200 | 1320 | 1570 | 1640 | 2120 | 3060 | 3120 | 4230 | 5060 |
| 2026-05-04 10:15 | 3.57 | 1430 | 6200 (1988) | 829 (2005) | 2430 | 1200 | 1320 | 1570 | 1640 | 2120 | 3060 | 3120 | 4230 | 5060 |
| 2026-05-04 09:15 | 3.55 | 1370 | 6200 (1988) | 829 (2005) | 2430 | 1200 | 1320 | 1570 | 1640 | 2120 | 3060 | 3120 | 4230 | 5060 |
| 2026-05-04 08:15 | 3.53 | 1320 | 6200 (1988) | 829 (2005) | 2430 | 1200 | 1320 | 1570 | 1640 | 2120 | 3060 | 3120 | 4230 | 5060 |
| 2026-05-04 07:15 | 3.51 | 1260 | 6200 (1988) | 829 (2005) | 2430 | 1200 | 1320 | 1570 | 1640 | 2120 | 3060 | 3120 | 4230 | 5060 |
| 2026-05-04 06:15 | 3.48 | 1180 | 6200 (1988) | 829 (2005) | 2430 | 1200 | 1320 | 1570 | 1640 | 2120 | 3060 | 3120 | 4230 | 5060 |
| 2026-05-04 05:15 | 3.48 | 1180 | 6200 (1988) | 829 (2005) | 2430 | 1200 | 1320 | 1570 | 1640 | 2120 | 3060 | 3120 | 4230 | 5060 |
| 2026-05-04 04:15 | 3.48 | 1180 | 6200 (1988) | 829 (2005) | 2430 | 1200 | 1320 | 1570 | 1640 | 2120 | 3060 | 3120 | 4230 | 5060 |
| 2026-05-04 03:15 | 3.49 | 1210 | 6200 (1988) | 829 (2005) | 2430 | 1200 | 1320 | 1570 | 1640 | 2120 | 3060 | 3120 | 4230 | 5060 |
| 2026-05-04 02:15 | 3.50 | 1230 | 6200 (1988) | 829 (2005) | 2430 | 1200 | 1320 | 1570 | 1640 | 2120 | 3060 | 3120 | 4230 | 5060 |
| 2026-05-04 01:15 | 3.51 | 1260 | 6200 (1988) | 829 (2005) | 2430 | 1200 | 1320 | 1570 | 1640 | 2120 | 3060 | 3120 | 4230 | 5060 |
| 2026-05-04 00:15 | 3.52 | 1290 | 6200 (1988) | 829 (2005) | 2430 | 1200 | 1320 | 1570 | 1640 | 2120 | 3060 | 3120 | 4230 | 5060 |
| 2026-05-03 23:15 | 3.52 | 1290 | 6200 (1988) | 829 (2005) | 2430 | 1200 | 1320 | 1570 | 1640 | 2120 | 3060 | 3120 | 4230 | 5060 |
| 2026-05-03 22:15 | 3.50 | 1230 | 8900 (1964) | 787 (2005) | 2510 | 1130 | 1330 | 1560 | 1670 | 2170 | 2910 | 3200 | 4010 | 5270 |
| 2026-05-03 21:15 | 3.49 | 1210 | 8900 (1964) | 787 (2005) | 2510 | 1130 | 1330 | 1560 | 1670 | 2170 | 2910 | 3200 | 4010 | 5270 |
| 2026-05-03 20:15 | 3.48 | 1180 | 8900 (1964) | 787 (2005) | 2510 | 1130 | 1330 | 1560 | 1670 | 2170 | 2910 | 3200 | 4010 | 5270 |
| 2026-05-03 19:15 | 3.51 | 1260 | 8900 (1964) | 787 (2005) | 2510 | 1130 | 1330 | 1560 | 1670 | 2170 | 2910 | 3200 | 4010 | 5270 |
| 2026-05-03 18:15 | 3.55 | 1370 | 8900 (1964) | 787 (2005) | 2510 | 1130 | 1330 | 1560 | 1670 | 2170 | 2910 | 3200 | 4010 | 5270 |
| 2026-05-03 17:15 | 3.57 | 1430 | 8900 (1964) | 787 (2005) | 2510 | 1130 | 1330 | 1560 | 1670 | 2170 | 2910 | 3200 | 4010 | 5270 |
| 2026-05-03 16:15 | 3.57 | 1430 | 8900 (1964) | 787 (2005) | 2510 | 1130 | 1330 | 1560 | 1670 | 2170 | 2910 | 3200 | 4010 | 5270 |
| 2026-05-03 15:15 | 3.58 | 1460 | 8900 (1964) | 787 (2005) | 2510 | 1130 | 1330 | 1560 | 1670 | 2170 | 2910 | 3200 | 4010 | 5270 |
| 2026-05-03 14:15 | 3.59 | 1490 | 8900 (1964) | 787 (2005) | 2510 | 1130 | 1330 | 1560 | 1670 | 2170 | 2910 | 3200 | 4010 | 5270 |
| 2026-05-03 13:15 | 3.60 | 1520 | 8900 (1964) | 787 (2005) | 2510 | 1130 | 1330 | 1560 | 1670 | 2170 | 2910 | 3200 | 4010 | 5270 |
| 2026-05-03 12:15 | 3.58 | 1460 | 8900 (1964) | 787 (2005) | 2510 | 1130 | 1330 | 1560 | 1670 | 2170 | 2910 | 3200 | 4010 | 5270 |
| 2026-05-03 11:15 | 3.57 | 1430 | 8900 (1964) | 787 (2005) | 2510 | 1130 | 1330 | 1560 | 1670 | 2170 | 2910 | 3200 | 4010 | 5270 |
| 2026-05-03 10:15 | 3.55 | 1370 | 8900 (1964) | 787 (2005) | 2510 | 1130 | 1330 | 1560 | 1670 | 2170 | 2910 | 3200 | 4010 | 5270 |
| 2026-05-03 09:15 | 3.52 | 1290 | 8900 (1964) | 787 (2005) | 2510 | 1130 | 1330 | 1560 | 1670 | 2170 | 2910 | 3200 | 4010 | 5270 |
| 2026-05-03 08:15 | 3.54 | 1340 | 8900 (1964) | 787 (2005) | 2510 | 1130 | 1330 | 1560 | 1670 | 2170 | 2910 | 3200 | 4010 | 5270 |
| 2026-05-03 07:15 | 3.52 | 1290 | 8900 (1964) | 787 (2005) | 2510 | 1130 | 1330 | 1560 | 1670 | 2170 | 2910 | 3200 | 4010 | 5270 |
| 2026-05-03 06:15 | 3.50 | 1230 | 8900 (1964) | 787 (2005) | 2510 | 1130 | 1330 | 1560 | 1670 | 2170 | 2910 | 3200 | 4010 | 5270 |
| 2026-05-03 05:15 | 3.49 | 1210 | 8900 (1964) | 787 (2005) | 2510 | 1130 | 1330 | 1560 | 1670 | 2170 | 2910 | 3200 | 4010 | 5270 |
| 2026-05-03 04:15 | 3.48 | 1180 | 8900 (1964) | 787 (2005) | 2510 | 1130 | 1330 | 1560 | 1670 | 2170 | 2910 | 3200 | 4010 | 5270 |
| 2026-05-03 03:15 | 3.49 | 1210 | 8900 (1964) | 787 (2005) | 2510 | 1130 | 1330 | 1560 | 1670 | 2170 | 2910 | 3200 | 4010 | 5270 |
| 2026-05-03 02:15 | 3.49 | 1210 | 8900 (1964) | 787 (2005) | 2510 | 1130 | 1330 | 1560 | 1670 | 2170 | 2910 | 3200 | 4010 | 5270 |
| 2026-05-03 01:15 | 3.48 | 1180 | 8900 (1964) | 787 (2005) | 2510 | 1130 | 1330 | 1560 | 1670 | 2170 | 2910 | 3200 | 4010 | 5270 |
| 2026-05-03 00:15 | 3.49 | 1210 | 8900 (1964) | 787 (2005) | 2510 | 1130 | 1330 | 1560 | 1670 | 2170 | 2910 | 3200 | 4010 | 5270 |
| 2026-05-02 23:15 | 3.49 | 1210 | 8900 (1964) | 787 (2005) | 2510 | 1130 | 1330 | 1560 | 1670 | 2170 | 2910 | 3200 | 4010 | 5270 |
| 2026-05-02 22:15 | 3.51 | 1260 | 6760 (2016) | 731 (2005) | 2540 | 1110 | 1370 | 1560 | 1690 | 2380 | 3010 | 3230 | 3790 | 5200 |
| 2026-05-02 21:15 | 3.51 | 1260 | 6760 (2016) | 731 (2005) | 2540 | 1110 | 1370 | 1560 | 1690 | 2380 | 3010 | 3230 | 3790 | 5200 |
| 2026-05-02 20:15 | 3.53 | 1320 | 6760 (2016) | 731 (2005) | 2540 | 1110 | 1370 | 1560 | 1690 | 2380 | 3010 | 3230 | 3790 | 5200 |
| 2026-05-02 19:15 | 3.52 | 1290 | 6760 (2016) | 731 (2005) | 2540 | 1110 | 1370 | 1560 | 1690 | 2380 | 3010 | 3230 | 3790 | 5200 |
| 2026-05-02 18:15 | 3.54 | 1340 | 6760 (2016) | 731 (2005) | 2540 | 1110 | 1370 | 1560 | 1690 | 2380 | 3010 | 3230 | 3790 | 5200 |
| 2026-05-02 17:15 | 3.55 | 1370 | 6760 (2016) | 731 (2005) | 2540 | 1110 | 1370 | 1560 | 1690 | 2380 | 3010 | 3230 | 3790 | 5200 |
| 2026-05-02 16:15 | 3.57 | 1430 | 6760 (2016) | 731 (2005) | 2540 | 1110 | 1370 | 1560 | 1690 | 2380 | 3010 | 3230 | 3790 | 5200 |
| 2026-05-02 15:15 | 3.58 | 1460 | 6760 (2016) | 731 (2005) | 2540 | 1110 | 1370 | 1560 | 1690 | 2380 | 3010 | 3230 | 3790 | 5200 |
| 2026-05-02 14:15 | 3.56 | 1400 | 6760 (2016) | 731 (2005) | 2540 | 1110 | 1370 | 1560 | 1690 | 2380 | 3010 | 3230 | 3790 | 5200 |
| 2026-05-02 13:15 | 3.56 | 1400 | 6760 (2016) | 731 (2005) | 2540 | 1110 | 1370 | 1560 | 1690 | 2380 | 3010 | 3230 | 3790 | 5200 |
| 2026-05-02 12:15 | 3.57 | 1430 | 6760 (2016) | 731 (2005) | 2540 | 1110 | 1370 | 1560 | 1690 | 2380 | 3010 | 3230 | 3790 | 5200 |
| 2026-05-02 11:15 | 3.60 | 1520 | 6760 (2016) | 731 (2005) | 2540 | 1110 | 1370 | 1560 | 1690 | 2380 | 3010 | 3230 | 3790 | 5200 |
| 2026-05-02 10:15 | 3.59 | 1490 | 6760 (2016) | 731 (2005) | 2540 | 1110 | 1370 | 1560 | 1690 | 2380 | 3010 | 3230 | 3790 | 5200 |
| 2026-05-02 09:15 | 3.57 | 1430 | 6760 (2016) | 731 (2005) | 2540 | 1110 | 1370 | 1560 | 1690 | 2380 | 3010 | 3230 | 3790 | 5200 |
| 2026-05-02 08:15 | 3.59 | 1490 | 6760 (2016) | 731 (2005) | 2540 | 1110 | 1370 | 1560 | 1690 | 2380 | 3010 | 3230 | 3790 | 5200 |
| 2026-05-02 07:15 | 3.60 | 1520 | 6760 (2016) | 731 (2005) | 2540 | 1110 | 1370 | 1560 | 1690 | 2380 | 3010 | 3230 | 3790 | 5200 |
| 2026-05-02 06:15 | 3.63 | 1630 | 6760 (2016) | 731 (2005) | 2540 | 1110 | 1370 | 1560 | 1690 | 2380 | 3010 | 3230 | 3790 | 5200 |
| 2026-05-02 05:15 | 3.64 | 1670 | 6760 (2016) | 731 (2005) | 2540 | 1110 | 1370 | 1560 | 1690 | 2380 | 3010 | 3230 | 3790 | 5200 |
| 2026-05-02 04:15 | 3.64 | 1670 | 6760 (2016) | 731 (2005) | 2540 | 1110 | 1370 | 1560 | 1690 | 2380 | 3010 | 3230 | 3790 | 5200 |
| 2026-05-02 03:15 | 3.64 | 1670 | 6760 (2016) | 731 (2005) | 2540 | 1110 | 1370 | 1560 | 1690 | 2380 | 3010 | 3230 | 3790 | 5200 |
| 2026-05-02 02:15 | 3.66 | 1740 | 6760 (2016) | 731 (2005) | 2540 | 1110 | 1370 | 1560 | 1690 | 2380 | 3010 | 3230 | 3790 | 5200 |
| 2026-05-02 01:15 | 3.70 | 1910 | 6760 (2016) | 731 (2005) | 2540 | 1110 | 1370 | 1560 | 1690 | 2380 | 3010 | 3230 | 3790 | 5200 |
| 2026-05-02 00:15 | 3.72 | 1990 | 6760 (2016) | 731 (2005) | 2540 | 1110 | 1370 | 1560 | 1690 | 2380 | 3010 | 3230 | 3790 | 5200 |
| 2026-05-01 23:15 | 3.72 | 1990 | 6760 (2016) | 731 (2005) | 2540 | 1110 | 1370 | 1560 | 1690 | 2380 | 3010 | 3230 | 3790 | 5200 |
| 2026-05-01 22:15 | 3.71 | 1950 | 7470 (2016) | 804 (2005) | 2520 | 1250 | 1380 | 1600 | 1660 | 2440 | 3100 | 3230 | 3710 | 4590 |
| 2026-05-01 21:15 | 3.72 | 1990 | 7470 (2016) | 804 (2005) | 2520 | 1250 | 1380 | 1600 | 1660 | 2440 | 3100 | 3230 | 3710 | 4590 |
| 2026-05-01 20:15 | 3.73 | 2040 | 7470 (2016) | 804 (2005) | 2520 | 1250 | 1380 | 1600 | 1660 | 2440 | 3100 | 3230 | 3710 | 4590 |
| 2026-05-01 19:15 | 3.72 | 1990 | 7470 (2016) | 804 (2005) | 2520 | 1250 | 1380 | 1600 | 1660 | 2440 | 3100 | 3230 | 3710 | 4590 |
| 2026-05-01 18:15 | 3.72 | 1990 | 7470 (2016) | 804 (2005) | 2520 | 1250 | 1380 | 1600 | 1660 | 2440 | 3100 | 3230 | 3710 | 4590 |
| 2026-05-01 17:15 | 3.71 | 1950 | 7470 (2016) | 804 (2005) | 2520 | 1250 | 1380 | 1600 | 1660 | 2440 | 3100 | 3230 | 3710 | 4590 |
| 2026-05-01 16:15 | 3.69 | 1870 | 7470 (2016) | 804 (2005) | 2520 | 1250 | 1380 | 1600 | 1660 | 2440 | 3100 | 3230 | 3710 | 4590 |
| 2026-05-01 15:15 | 3.69 | 1870 | 7470 (2016) | 804 (2005) | 2520 | 1250 | 1380 | 1600 | 1660 | 2440 | 3100 | 3230 | 3710 | 4590 |
| 2026-05-01 14:15 | 3.69 | 1870 | 7470 (2016) | 804 (2005) | 2520 | 1250 | 1380 | 1600 | 1660 | 2440 | 3100 | 3230 | 3710 | 4590 |
| 2026-05-01 13:15 | 3.66 | 1740 | 7470 (2016) | 804 (2005) | 2520 | 1250 | 1380 | 1600 | 1660 | 2440 | 3100 | 3230 | 3710 | 4590 |
| 2026-05-01 12:15 | 3.64 | 1670 | 7470 (2016) | 804 (2005) | 2520 | 1250 | 1380 | 1600 | 1660 | 2440 | 3100 | 3230 | 3710 | 4590 |
| 2026-05-01 11:15 | 3.62 | 1590 | 7470 (2016) | 804 (2005) | 2520 | 1250 | 1380 | 1600 | 1660 | 2440 | 3100 | 3230 | 3710 | 4590 |
| 2026-05-01 10:15 | 3.59 | 1490 | 7470 (2016) | 804 (2005) | 2520 | 1250 | 1380 | 1600 | 1660 | 2440 | 3100 | 3230 | 3710 | 4590 |
| 2026-05-01 09:15 | 3.58 | 1460 | 7470 (2016) | 804 (2005) | 2520 | 1250 | 1380 | 1600 | 1660 | 2440 | 3100 | 3230 | 3710 | 4590 |
| 2026-05-01 08:15 | 3.58 | 1460 | 7470 (2016) | 804 (2005) | 2520 | 1250 | 1380 | 1600 | 1660 | 2440 | 3100 | 3230 | 3710 | 4590 |
| 2026-05-01 07:15 | 3.59 | 1490 | 7470 (2016) | 804 (2005) | 2520 | 1250 | 1380 | 1600 | 1660 | 2440 | 3100 | 3230 | 3710 | 4590 |
| 2026-05-01 06:15 | 3.58 | 1460 | 7470 (2016) | 804 (2005) | 2520 | 1250 | 1380 | 1600 | 1660 | 2440 | 3100 | 3230 | 3710 | 4590 |
| 2026-05-01 05:15 | 3.60 | 1520 | 7470 (2016) | 804 (2005) | 2520 | 1250 | 1380 | 1600 | 1660 | 2440 | 3100 | 3230 | 3710 | 4590 |
| 2026-05-01 04:15 | 3.61 | 1560 | 7470 (2016) | 804 (2005) | 2520 | 1250 | 1380 | 1600 | 1660 | 2440 | 3100 | 3230 | 3710 | 4590 |
| 2026-05-01 03:15 | 3.60 | 1520 | 7470 (2016) | 804 (2005) | 2520 | 1250 | 1380 | 1600 | 1660 | 2440 | 3100 | 3230 | 3710 | 4590 |
| 2026-05-01 02:15 | 3.61 | 1560 | 7470 (2016) | 804 (2005) | 2520 | 1250 | 1380 | 1600 | 1660 | 2440 | 3100 | 3230 | 3710 | 4590 |
| 2026-05-01 01:15 | 3.61 | 1560 | 7470 (2016) | 804 (2005) | 2520 | 1250 | 1380 | 1600 | 1660 | 2440 | 3100 | 3230 | 3710 | 4590 |
| 2026-05-01 00:15 | 3.62 | 1590 | 7470 (2016) | 804 (2005) | 2520 | 1250 | 1380 | 1600 | 1660 | 2440 | 3100 | 3230 | 3710 | 4590 |
| 2026-04-30 23:15 | 3.62 | 1590 | 7470 (2016) | 804 (2005) | 2520 | 1250 | 1380 | 1600 | 1660 | 2440 | 3100 | 3230 | 3710 | 4590 |
| 2026-04-30 22:15 | 3.61 | 1560 | 4620 (2016) | 904 (2005) | 2440 | 1280 | 1400 | 1650 | 1780 | 2350 | 2920 | 3240 | 3740 | 4040 |
| 2026-04-30 21:15 | 3.64 | 1670 | 4620 (2016) | 904 (2005) | 2440 | 1280 | 1400 | 1650 | 1780 | 2350 | 2920 | 3240 | 3740 | 4040 |
| 2026-04-30 20:15 | 3.67 | 1780 | 4620 (2016) | 904 (2005) | 2440 | 1280 | 1400 | 1650 | 1780 | 2350 | 2920 | 3240 | 3740 | 4040 |
| 2026-04-30 19:15 | 3.69 | 1870 | 4620 (2016) | 904 (2005) | 2440 | 1280 | 1400 | 1650 | 1780 | 2350 | 2920 | 3240 | 3740 | 4040 |
| 2026-04-30 18:15 | 3.70 | 1910 | 4620 (2016) | 904 (2005) | 2440 | 1280 | 1400 | 1650 | 1780 | 2350 | 2920 | 3240 | 3740 | 4040 |
| 2026-04-30 17:15 | 3.70 | 1910 | 4620 (2016) | 904 (2005) | 2440 | 1280 | 1400 | 1650 | 1780 | 2350 | 2920 | 3240 | 3740 | 4040 |
| 2026-04-30 16:15 | 3.70 | 1910 | 4620 (2016) | 904 (2005) | 2440 | 1280 | 1400 | 1650 | 1780 | 2350 | 2920 | 3240 | 3740 | 4040 |
| 2026-04-30 15:15 | 3.71 | 1950 | 4620 (2016) | 904 (2005) | 2440 | 1280 | 1400 | 1650 | 1780 | 2350 | 2920 | 3240 | 3740 | 4040 |
| 2026-04-30 14:15 | 3.70 | 1910 | 4620 (2016) | 904 (2005) | 2440 | 1280 | 1400 | 1650 | 1780 | 2350 | 2920 | 3240 | 3740 | 4040 |
| 2026-04-30 13:15 | 3.71 | 1950 | 4620 (2016) | 904 (2005) | 2440 | 1280 | 1400 | 1650 | 1780 | 2350 | 2920 | 3240 | 3740 | 4040 |
| 2026-04-30 12:15 | 3.70 | 1910 | 4620 (2016) | 904 (2005) | 2440 | 1280 | 1400 | 1650 | 1780 | 2350 | 2920 | 3240 | 3740 | 4040 |
| 2026-04-30 11:15 | 3.70 | 1910 | 4620 (2016) | 904 (2005) | 2440 | 1280 | 1400 | 1650 | 1780 | 2350 | 2920 | 3240 | 3740 | 4040 |
| 2026-04-30 10:15 | 3.70 | 1910 | 4620 (2016) | 904 (2005) | 2440 | 1280 | 1400 | 1650 | 1780 | 2350 | 2920 | 3240 | 3740 | 4040 |
| 2026-04-30 09:15 | 3.69 | 1870 | 4620 (2016) | 904 (2005) | 2440 | 1280 | 1400 | 1650 | 1780 | 2350 | 2920 | 3240 | 3740 | 4040 |
| 2026-04-30 08:15 | 3.69 | 1870 | 4620 (2016) | 904 (2005) | 2440 | 1280 | 1400 | 1650 | 1780 | 2350 | 2920 | 3240 | 3740 | 4040 |
| 2026-04-30 07:15 | 3.68 | 1820 | 4620 (2016) | 904 (2005) | 2440 | 1280 | 1400 | 1650 | 1780 | 2350 | 2920 | 3240 | 3740 | 4040 |
| 2026-04-30 06:15 | 3.69 | 1870 | 4620 (2016) | 904 (2005) | 2440 | 1280 | 1400 | 1650 | 1780 | 2350 | 2920 | 3240 | 3740 | 4040 |
| 2026-04-30 05:15 | 3.67 | 1780 | 4620 (2016) | 904 (2005) | 2440 | 1280 | 1400 | 1650 | 1780 | 2350 | 2920 | 3240 | 3740 | 4040 |
| 2026-04-30 04:15 | 3.64 | 1670 | 4620 (2016) | 904 (2005) | 2440 | 1280 | 1400 | 1650 | 1780 | 2350 | 2920 | 3240 | 3740 | 4040 |
| 2026-04-30 03:15 | 3.64 | 1670 | 4620 (2016) | 904 (2005) | 2440 | 1280 | 1400 | 1650 | 1780 | 2350 | 2920 | 3240 | 3740 | 4040 |
| 2026-04-30 02:15 | 3.65 | 1710 | 4620 (2016) | 904 (2005) | 2440 | 1280 | 1400 | 1650 | 1780 | 2350 | 2920 | 3240 | 3740 | 4040 |
| 2026-04-30 01:15 | 3.67 | 1780 | 4620 (2016) | 904 (2005) | 2440 | 1280 | 1400 | 1650 | 1780 | 2350 | 2920 | 3240 | 3740 | 4040 |
| 2026-04-30 00:15 | 3.67 | 1780 | 4620 (2016) | 904 (2005) | 2440 | 1280 | 1400 | 1650 | 1780 | 2350 | 2920 | 3240 | 3740 | 4040 |
| 2026-04-29 23:15 | 3.67 | 1780 | 4620 (2016) | 904 (2005) | 2440 | 1280 | 1400 | 1650 | 1780 | 2350 | 2920 | 3240 | 3740 | 4040 |
| 2026-04-29 22:15 | 3.67 | 1780 | 4600 (2021) | 960 (2005) | 2390 | 1300 | 1430 | 1670 | 1760 | 2170 | 2980 | 3120 | 3610 | 3970 |
| 2026-04-29 21:15 | 3.67 | 1780 | 4600 (2021) | 960 (2005) | 2390 | 1300 | 1430 | 1670 | 1760 | 2170 | 2980 | 3120 | 3610 | 3970 |
| 2026-04-29 20:15 | 3.70 | 1910 | 4600 (2021) | 960 (2005) | 2390 | 1300 | 1430 | 1670 | 1760 | 2170 | 2980 | 3120 | 3610 | 3970 |
| 2026-04-29 19:15 | 3.74 | 2080 | 4600 (2021) | 960 (2005) | 2390 | 1300 | 1430 | 1670 | 1760 | 2170 | 2980 | 3120 | 3610 | 3970 |
| 2026-04-29 18:15 | 3.79 | 2320 | 4600 (2021) | 960 (2005) | 2390 | 1300 | 1430 | 1670 | 1760 | 2170 | 2980 | 3120 | 3610 | 3970 |
| 2026-04-29 17:15 | 3.81 | 2420 | 4600 (2021) | 960 (2005) | 2390 | 1300 | 1430 | 1670 | 1760 | 2170 | 2980 | 3120 | 3610 | 3970 |
| 2026-04-29 16:15 | 3.79 | 2320 | 4600 (2021) | 960 (2005) | 2390 | 1300 | 1430 | 1670 | 1760 | 2170 | 2980 | 3120 | 3610 | 3970 |
| 2026-04-29 15:15 | 3.81 | 2420 | 4600 (2021) | 960 (2005) | 2390 | 1300 | 1430 | 1670 | 1760 | 2170 | 2980 | 3120 | 3610 | 3970 |
| 2026-04-29 14:15 | 3.82 | 2470 | 4600 (2021) | 960 (2005) | 2390 | 1300 | 1430 | 1670 | 1760 | 2170 | 2980 | 3120 | 3610 | 3970 |
| 2026-04-29 13:15 | 3.85 | 2630 | 4600 (2021) | 960 (2005) | 2390 | 1300 | 1430 | 1670 | 1760 | 2170 | 2980 | 3120 | 3610 | 3970 |
| 2026-04-29 12:15 | 3.87 | 2750 | 4600 (2021) | 960 (2005) | 2390 | 1300 | 1430 | 1670 | 1760 | 2170 | 2980 | 3120 | 3610 | 3970 |
| 2026-04-29 11:15 | 3.87 | 2750 | 4600 (2021) | 960 (2005) | 2390 | 1300 | 1430 | 1670 | 1760 | 2170 | 2980 | 3120 | 3610 | 3970 |
| 2026-04-29 10:15 | 3.87 | 2750 | 4600 (2021) | 960 (2005) | 2390 | 1300 | 1430 | 1670 | 1760 | 2170 | 2980 | 3120 | 3610 | 3970 |
| 2026-04-29 09:15 | 3.88 | 2800 | 4600 (2021) | 960 (2005) | 2390 | 1300 | 1430 | 1670 | 1760 | 2170 | 2980 | 3120 | 3610 | 3970 |
| 2026-04-29 08:15 | 3.87 | 2750 | 4600 (2021) | 960 (2005) | 2390 | 1300 | 1430 | 1670 | 1760 | 2170 | 2980 | 3120 | 3610 | 3970 |
| 2026-04-29 07:15 | 3.90 | 2920 | 4600 (2021) | 960 (2005) | 2390 | 1300 | 1430 | 1670 | 1760 | 2170 | 2980 | 3120 | 3610 | 3970 |
| 2026-04-29 06:15 | 3.89 | 2860 | 4600 (2021) | 960 (2005) | 2390 | 1300 | 1430 | 1670 | 1760 | 2170 | 2980 | 3120 | 3610 | 3970 |
| 2026-04-29 05:15 | 3.89 | 2860 | 4600 (2021) | 960 (2005) | 2390 | 1300 | 1430 | 1670 | 1760 | 2170 | 2980 | 3120 | 3610 | 3970 |
| 2026-04-29 04:15 | 3.86 | 2690 | 4600 (2021) | 960 (2005) | 2390 | 1300 | 1430 | 1670 | 1760 | 2170 | 2980 | 3120 | 3610 | 3970 |
| 2026-04-29 03:15 | 3.83 | 2530 | 4600 (2021) | 960 (2005) | 2390 | 1300 | 1430 | 1670 | 1760 | 2170 | 2980 | 3120 | 3610 | 3970 |
| 2026-04-29 02:15 | 3.84 | 2580 | 4600 (2021) | 960 (2005) | 2390 | 1300 | 1430 | 1670 | 1760 | 2170 | 2980 | 3120 | 3610 | 3970 |
| 2026-04-29 01:15 | 3.81 | 2420 | 4600 (2021) | 960 (2005) | 2390 | 1300 | 1430 | 1670 | 1760 | 2170 | 2980 | 3120 | 3610 | 3970 |
| 2026-04-29 00:15 | 3.81 | 2420 | 4600 (2021) | 960 (2005) | 2390 | 1300 | 1430 | 1670 | 1760 | 2170 | 2980 | 3120 | 3610 | 3970 |
| 2026-04-28 23:15 | 3.79 | 2320 | 4600 (2021) | 960 (2005) | 2390 | 1300 | 1430 | 1670 | 1760 | 2170 | 2980 | 3120 | 3610 | 3970 |
| 2026-04-28 22:15 | 3.80 | 2370 | 5710 (2021) | 1120 (2004) | 2470 | 1340 | 1450 | 1630 | 1720 | 2310 | 2930 | 3240 | 3770 | 4500 |
| 2026-04-28 21:15 | 3.79 | 2320 | 5710 (2021) | 1120 (2004) | 2470 | 1340 | 1450 | 1630 | 1720 | 2310 | 2930 | 3240 | 3770 | 4500 |
| 2026-04-28 20:15 | 3.80 | 2370 | 5710 (2021) | 1120 (2004) | 2470 | 1340 | 1450 | 1630 | 1720 | 2310 | 2930 | 3240 | 3770 | 4500 |
| 2026-04-28 19:15 | 3.81 | 2420 | 5710 (2021) | 1120 (2004) | 2470 | 1340 | 1450 | 1630 | 1720 | 2310 | 2930 | 3240 | 3770 | 4500 |
| 2026-04-28 18:15 | 3.81 | 2420 | 5710 (2021) | 1120 (2004) | 2470 | 1340 | 1450 | 1630 | 1720 | 2310 | 2930 | 3240 | 3770 | 4500 |
| 2026-04-28 17:15 | 3.79 | 2320 | 5710 (2021) | 1120 (2004) | 2470 | 1340 | 1450 | 1630 | 1720 | 2310 | 2930 | 3240 | 3770 | 4500 |
| 2026-04-28 16:15 | 3.81 | 2420 | 5710 (2021) | 1120 (2004) | 2470 | 1340 | 1450 | 1630 | 1720 | 2310 | 2930 | 3240 | 3770 | 4500 |
| 2026-04-28 15:15 | 3.81 | 2420 | 5710 (2021) | 1120 (2004) | 2470 | 1340 | 1450 | 1630 | 1720 | 2310 | 2930 | 3240 | 3770 | 4500 |
| 2026-04-28 14:15 | 3.82 | 2470 | 5710 (2021) | 1120 (2004) | 2470 | 1340 | 1450 | 1630 | 1720 | 2310 | 2930 | 3240 | 3770 | 4500 |
| 2026-04-28 13:15 | 3.83 | 2530 | 5710 (2021) | 1120 (2004) | 2470 | 1340 | 1450 | 1630 | 1720 | 2310 | 2930 | 3240 | 3770 | 4500 |
| 2026-04-28 12:15 | 3.82 | 2470 | 5710 (2021) | 1120 (2004) | 2470 | 1340 | 1450 | 1630 | 1720 | 2310 | 2930 | 3240 | 3770 | 4500 |
| 2026-04-28 11:15 | 3.84 | 2580 | 5710 (2021) | 1120 (2004) | 2470 | 1340 | 1450 | 1630 | 1720 | 2310 | 2930 | 3240 | 3770 | 4500 |
| 2026-04-28 10:15 | 3.85 | 2630 | 5710 (2021) | 1120 (2004) | 2470 | 1340 | 1450 | 1630 | 1720 | 2310 | 2930 | 3240 | 3770 | 4500 |
| 2026-04-28 09:15 | 3.84 | 2580 | 5710 (2021) | 1120 (2004) | 2470 | 1340 | 1450 | 1630 | 1720 | 2310 | 2930 | 3240 | 3770 | 4500 |
| 2026-04-28 08:15 | 3.82 | 2470 | 5710 (2021) | 1120 (2004) | 2470 | 1340 | 1450 | 1630 | 1720 | 2310 | 2930 | 3240 | 3770 | 4500 |
| 2026-04-28 07:15 | 3.83 | 2530 | 5710 (2021) | 1120 (2004) | 2470 | 1340 | 1450 | 1630 | 1720 | 2310 | 2930 | 3240 | 3770 | 4500 |
| 2026-04-28 06:15 | 3.86 | 2690 | 5710 (2021) | 1120 (2004) | 2470 | 1340 | 1450 | 1630 | 1720 | 2310 | 2930 | 3240 | 3770 | 4500 |
| 2026-04-28 05:15 | 3.89 | 2860 | 5710 (2021) | 1120 (2004) | 2470 | 1340 | 1450 | 1630 | 1720 | 2310 | 2930 | 3240 | 3770 | 4500 |
| 2026-04-28 04:15 | 3.90 | 2920 | 5710 (2021) | 1120 (2004) | 2470 | 1340 | 1450 | 1630 | 1720 | 2310 | 2930 | 3240 | 3770 | 4500 |
| 2026-04-28 03:15 | 3.92 | 3050 | 5710 (2021) | 1120 (2004) | 2470 | 1340 | 1450 | 1630 | 1720 | 2310 | 2930 | 3240 | 3770 | 4500 |
| 2026-04-28 02:15 | 3.91 | 2980 | 5710 (2021) | 1120 (2004) | 2470 | 1340 | 1450 | 1630 | 1720 | 2310 | 2930 | 3240 | 3770 | 4500 |
| 2026-04-28 01:15 | 3.91 | 2980 | 5710 (2021) | 1120 (2004) | 2470 | 1340 | 1450 | 1630 | 1720 | 2310 | 2930 | 3240 | 3770 | 4500 |
| 2026-04-28 00:15 | 3.90 | 2920 | 5710 (2021) | 1120 (2004) | 2470 | 1340 | 1450 | 1630 | 1720 | 2310 | 2930 | 3240 | 3770 | 4500 |
| 2026-04-27 23:15 | 3.85 | 2630 | 5710 (2021) | 1120 (2004) | 2470 | 1340 | 1450 | 1630 | 1720 | 2310 | 2930 | 3240 | 3770 | 4500 |
A total of 180 rows are displayed for years 1938 through 2025.